createdAt,value
2022-10-23T00:03:49.953Z,1021
2022-10-23T00:09:22.820Z,1020.9
2022-10-23T00:14:42.695Z,1021
2022-10-23T00:20:33.137Z,1021
2022-10-23T00:25:56.560Z,1021
2022-10-23T00:31:26.439Z,1020.8
2022-10-23T00:37:05.763Z,1020.9
2022-10-23T00:42:39.717Z,1020.8
2022-10-23T00:48:14.559Z,1020.9
2022-10-23T00:53:28.171Z,1021
2022-10-23T00:59:07.759Z,1020.9
2022-10-23T01:04:51.923Z,1021
2022-10-23T01:10:26.939Z,1021
2022-10-23T01:16:00.835Z,1021
2022-10-23T01:21:13.759Z,1021
2022-10-23T01:26:48.836Z,1020.8
2022-10-23T01:32:44.391Z,1020.8
2022-10-23T01:38:18.318Z,1020.6
2022-10-23T01:43:34.052Z,1020.7
2022-10-23T01:49:21.344Z,1020.5
2022-10-23T01:54:42.140Z,1020.5
2022-10-23T02:00:24.956Z,1020.3
2022-10-23T02:06:01.112Z,1020.4
2022-10-23T02:11:37.308Z,1020.4
2022-10-23T02:16:47.404Z,1020.4
2022-10-23T02:22:21.452Z,1020.5
2022-10-23T02:28:07.332Z,1020.4
2022-10-23T02:33:33.224Z,1020.4
2022-10-23T02:39:16.256Z,1020.4
2022-10-23T02:44:46.847Z,1020.3
2022-10-23T02:50:09.531Z,1020.2
2022-10-23T02:55:38.310Z,1020
2022-10-23T03:01:20.447Z,1020.1
2022-10-23T03:06:48.927Z,1020.1
2022-10-23T03:12:27.828Z,1020
2022-10-23T03:17:58.030Z,1020
2022-10-23T03:23:39.263Z,1020
2022-10-23T03:29:20.936Z,1019.9
2022-10-23T03:34:50.369Z,1019.9
2022-10-23T03:40:27.515Z,1020
2022-10-23T03:45:38.106Z,1019.9
2022-10-23T03:51:09.923Z,1020
2022-10-23T03:57:05.772Z,1020
2022-10-23T04:02:17.008Z,1019.8
2022-10-23T04:07:48.682Z,1019.7
2022-10-23T04:13:27.550Z,1019.9
2022-10-23T04:19:03.049Z,1019.9
2022-10-23T04:24:43.910Z,1019.9
2022-10-23T04:29:58.993Z,1019.9
2022-10-23T04:35:31.664Z,1020.1
2022-10-23T04:41:05.330Z,1020
2022-10-23T04:46:36.027Z,1020
2022-10-23T04:52:20.297Z,1020.1
2022-10-23T04:58:07.456Z,1020.1
2022-10-23T05:03:34.583Z,1020.1
2022-10-23T05:09:00.153Z,1020.1
2022-10-23T05:14:34.678Z,1020.2
2022-10-23T05:20:14.148Z,1020.1
2022-10-23T05:25:27.693Z,1020.1
2022-10-23T05:31:20.974Z,1020.1
2022-10-23T05:36:45.199Z,1020.2
2022-10-23T05:42:18.540Z,1020.3
2022-10-23T05:47:46.155Z,1020.1
2022-10-23T05:53:25.296Z,1020.2
2022-10-23T05:58:52.975Z,1020.1
2022-10-23T06:04:36.496Z,1020.1
2022-10-23T06:09:57.996Z,1020.1
2022-10-23T06:15:33.642Z,1020
2022-10-23T06:21:09.397Z,1020.1
2022-10-23T06:26:42.869Z,1020.1
2022-10-23T06:32:31.396Z,1020.2
2022-10-23T06:38:00.691Z,1020.2
2022-10-23T06:43:35.809Z,1020.3
2022-10-23T06:49:10.707Z,1020.3
2022-10-23T06:54:34.165Z,1020.3
2022-10-23T06:59:50.820Z,1020.3
2022-10-23T07:05:27.075Z,1020.3
2022-10-23T07:11:09.157Z,1020.2
2022-10-23T07:16:41.201Z,1020.4
2022-10-23T07:22:05.085Z,1020.4
2022-10-23T07:27:48.756Z,1020.3
2022-10-23T07:33:21.144Z,1020.3
2022-10-23T07:38:46.308Z,1020.1
2022-10-23T07:44:25.665Z,1020
2022-10-23T07:50:12.384Z,1020.2
2022-10-23T07:55:44.201Z,1020
2022-10-23T08:01:02.953Z,1020.1
2022-10-23T08:06:43.986Z,1020
2022-10-23T08:12:22.589Z,1019.9
2022-10-23T08:17:42.376Z,1019.9
2022-10-23T08:23:09.380Z,1019.8
2022-10-23T08:28:58.638Z,1019.9
2022-10-23T08:34:19.490Z,1019.9
2022-10-23T08:39:49.083Z,1019.9
2022-10-23T08:45:33.586Z,1019.8
2022-10-23T08:50:58.027Z,1019.8
2022-10-23T08:56:46.218Z,1019.6
2022-10-23T09:02:04.983Z,1019.5
2022-10-23T09:07:43.650Z,1019.3
2022-10-23T09:13:28.310Z,1019.3
2022-10-23T09:18:52.149Z,1019.3
2022-10-23T09:24:26.699Z,1019
2022-10-23T09:29:49.357Z,1019.2
2022-10-23T09:35:24.764Z,1019.3
2022-10-23T09:41:15.282Z,1019.2
2022-10-23T09:46:56.221Z,1019.1
2022-10-23T09:52:31.712Z,1019.3
2022-10-23T09:57:42.447Z,1019.3
2022-10-23T10:03:33.103Z,1019.2
2022-10-23T10:09:03.691Z,1019.2
2022-10-23T10:14:38.203Z,1019.2
2022-10-23T10:20:02.406Z,1019.3
2022-10-23T10:25:35.350Z,1019.2
2022-10-23T10:31:24.602Z,1019.1
2022-10-23T10:36:46.518Z,1019.1
2022-10-23T10:42:21.741Z,1019
2022-10-23T10:48:06.612Z,1019
2022-10-23T10:59:00.084Z,1018.7
2022-10-23T11:04:36.296Z,1018.8
2022-10-23T11:10:23.436Z,1018.8
2022-10-23T11:16:00.636Z,1018.7
2022-10-23T11:21:35.765Z,1018.5
2022-10-23T11:26:58.701Z,1018.5
2022-10-23T11:32:37.320Z,1018.3
2022-10-23T11:38:07.481Z,1017.9
2022-10-23T11:43:49.573Z,1017.9
2022-10-23T11:49:00.215Z,1017.8
2022-10-23T11:54:57.739Z,1017.6
2022-10-23T12:00:33.008Z,1017.3
2022-10-23T12:06:01.680Z,1017.3
2022-10-23T12:11:28.821Z,1017.3
2022-10-23T12:17:17.948Z,1017.1
2022-10-23T12:28:26.926Z,1017.2
2022-10-23T12:34:02.473Z,1017.1
2022-10-23T12:39:11.136Z,1016.7
2022-10-23T12:44:48.681Z,1016.5
2022-10-23T12:50:34.115Z,1016.4
2022-10-23T13:01:40.531Z,1016.3
2022-10-23T13:07:29.085Z,1016.4
2022-10-23T13:12:40.991Z,1016.2
2022-10-23T13:18:29.232Z,1016.2
2022-10-23T13:24:05.874Z,1015.9
2022-10-23T13:29:39.921Z,1015.7
2022-10-23T13:35:20.628Z,1015.7
2022-10-23T13:40:41.184Z,1015.8
2022-10-23T13:46:16.967Z,1015.6
2022-10-23T13:52:02.647Z,1015.9
2022-10-23T13:57:43.331Z,1015.8
2022-10-23T14:03:21.787Z,1015.8
2022-10-23T14:08:49.605Z,1016
2022-10-23T14:14:17.078Z,1016.8
2022-10-23T14:19:58.426Z,1017.2
2022-10-23T14:25:18.802Z,1016.5
2022-10-23T14:30:50.398Z,1017.2
2022-10-23T14:36:49.667Z,1016.5
2022-10-23T14:42:00.071Z,1016
2022-10-23T14:47:52.899Z,1016
2022-10-23T14:53:01.990Z,1015.9
2022-10-23T14:58:40.696Z,1015.8
2022-10-23T15:04:20.193Z,1015.6
2022-10-23T15:10:05.621Z,1015.3
2022-10-23T15:15:22.334Z,1015.1
2022-10-23T15:21:04.260Z,1015
2022-10-23T15:26:46.994Z,1015.1
2022-10-23T15:32:02.049Z,1015.1
2022-10-23T15:37:44.052Z,1015.1
2022-10-23T15:43:29.336Z,1015.2
2022-10-23T15:48:58.976Z,1015.5
2022-10-23T15:54:38.447Z,1015.7
2022-10-23T16:00:02.092Z,1016.1
2022-10-23T16:05:23.200Z,1016.1
2022-10-23T16:11:23.217Z,1016.3
2022-10-23T16:16:43.188Z,1016.4
2022-10-23T16:22:03.057Z,1016.5
2022-10-23T16:27:53.959Z,1016.6
2022-10-23T16:33:12.555Z,1016.6
2022-10-23T16:39:07.388Z,1016.6
2022-10-23T16:44:32.524Z,1016.4
2022-10-23T16:50:11.057Z,1016.6
2022-10-23T16:55:33.499Z,1016.7
2022-10-23T17:01:17.778Z,1017
2022-10-23T17:06:42.126Z,1017.2
2022-10-23T17:12:23.754Z,1017.3
2022-10-23T17:17:41.178Z,1017
2022-10-23T17:23:20.770Z,1017.5
2022-10-23T17:29:02.421Z,1018.2
2022-10-23T17:34:29.745Z,1018.3
2022-10-23T17:40:22.728Z,1018.3
2022-10-23T17:45:52.118Z,1018.4
2022-10-23T17:51:00.339Z,1018.4
2022-10-23T17:56:32.737Z,1018.6
2022-10-23T18:02:34.584Z,1018.9
2022-10-23T18:07:59.695Z,1019.2
2022-10-23T18:13:20.882Z,1019.3
2022-10-23T18:19:00.376Z,1019.4
2022-10-23T18:24:31.123Z,1019.6
2022-10-23T18:29:55.762Z,1019.8
2022-10-23T18:35:48.910Z,1019.9
2022-10-23T18:41:04.070Z,1019.8
2022-10-23T18:46:58.834Z,1019.9
2022-10-23T18:52:20.687Z,1019.8
2022-10-23T18:57:42.505Z,1020
2022-10-23T19:03:15.217Z,1020
2022-10-23T19:09:07.529Z,1019.9
2022-10-23T19:14:42.779Z,1019.2
2022-10-23T19:20:18.418Z,1019.9
2022-10-23T19:25:42.203Z,1020
2022-10-23T19:31:11.385Z,1020.3
2022-10-23T19:36:54.587Z,1020.1
2022-10-23T19:42:30.307Z,1019.9
2022-10-23T19:48:05.304Z,1020.1
2022-10-23T19:53:30.012Z,1020
2022-10-23T19:59:16.107Z,1020.2
2022-10-23T20:04:28.116Z,1020.1
2022-10-23T20:10:03.950Z,1019.7
2022-10-23T20:15:39.098Z,1019.8
2022-10-23T20:21:16.205Z,1019.7
2022-10-23T20:26:58.322Z,1019.5
2022-10-23T20:32:41.298Z,1019.1
2022-10-23T20:38:16.620Z,1019
2022-10-23T20:43:32.693Z,1019.1
2022-10-23T20:49:02.831Z,1019.1
2022-10-23T20:54:46.254Z,1019.2
2022-10-23T21:00:25.821Z,1019.1
2022-10-23T21:06:05.491Z,1019.3
2022-10-23T21:11:24.685Z,1019.3
2022-10-23T21:16:55.129Z,1019.2
2022-10-23T21:22:34.319Z,1019.1
2022-10-23T21:28:20.297Z,1019.3
2022-10-23T21:33:26.243Z,1019.2
2022-10-23T21:39:12.355Z,1019.2
2022-10-23T21:44:49.161Z,1019
2022-10-23T21:50:17.954Z,1019.2
2022-10-23T21:55:41.438Z,1019.2
2022-10-23T22:01:36.757Z,1019.3
2022-10-23T22:06:49.038Z,1019.2
2022-10-23T22:12:30.123Z,1018.7
2022-10-23T22:18:14.294Z,1018.8
2022-10-23T22:23:45.022Z,1018.6
2022-10-23T22:29:24.274Z,1018.4
2022-10-23T22:34:53.216Z,1018.3
2022-10-23T22:40:28.134Z,1018.3
2022-10-23T22:45:56.340Z,1018.3
2022-10-23T22:51:27.056Z,1018.7
2022-10-23T22:56:50.348Z,1018.8
2022-10-23T23:02:46.511Z,1018.9
2022-10-23T23:08:17.658Z,1018.6
2022-10-23T23:13:59.811Z,1018.6
2022-10-23T23:19:28.808Z,1018.7
2022-10-23T23:24:47.215Z,1019
2022-10-23T23:30:31.023Z,1019.6
2022-10-23T23:35:46.587Z,1019.6
2022-10-23T23:41:20.266Z,1019.6
2022-10-23T23:47:17.763Z,1019.7
2022-10-23T23:52:53.460Z,1019.7
2022-10-23T23:58:29.641Z,1019.8
